Industry, Maine
Current Conditions -  °F | °C
As of 5:15 PM on Tuesday 25 Nov 2014 (Local Time) from KWVL Reporting Station
Clear Clear  
Wind Chill: 52°   Ceiling: Unl
Heat Index: 52°   Visibility: 10mi
Dew Point: 27°   Wind: 8mph
Humidity: 38%   Direction: 260°W
Pressure: 29.83"   Gusts: NA
Location:  44.6583°N, 70.1012°W
Report Text: KWVL 252215Z 26007KT 10SM CLR 11/M03 A2983 RMK AO1
Loading
Personal Weather Stations






























Interactive Weather Map New forecast layout! Learn more

10-Day Weather Forecast

Advertisements
Track Severe Weather on mobile